Seattle, Washington
Traffic Map
Current Weather Conditions
Seattle, Washington
Broken Clouds
Broken Clouds
66°
Feels Like: 66°
Wind Chill: 66° Ceiling: 8000
Heat Index: 66° Visibility: 10mi
Dew Point: 53° Wind: 0mph
Humidity: 63% Direction: ° ()
Pressure: 30.14in Gusts: 0mph
Raw Report DataKBFI 220653Z 00000KT 10SM BKN080 19/12 A3014 RMK AO2 SLP207 T01890117
Traffic Incident Summary
Active as of:
Severity:
Category:
InformationThere was an issue retrieving the traffic information for this location. Please try a different location or try again shortly.
Advertisements
Track Severe Weather on mobile